sensor_id;sensor_type;location;lat;lon;timestamp;temperature;humidity
31809;DHT22;18379;48.208;-1.518;2023-07-31T00:02:54;17.40;99.90
31809;DHT22;18379;48.208;-1.518;2023-07-31T00:07:55;17.40;99.90
31809;DHT22;18379;48.208;-1.518;2023-07-31T00:12:56;17.40;99.90
31809;DHT22;18379;48.208;-1.518;2023-07-31T00:17:57;17.50;99.90
31809;DHT22;18379;48.208;-1.518;2023-07-31T00:22:57;17.50;99.90
31809;DHT22;18379;48.208;-1.518;2023-07-31T00:27:58;17.50;99.90
31809;DHT22;18379;48.208;-1.518;2023-07-31T00:32:59;17.50;99.90
31809;DHT22;18379;48.208;-1.518;2023-07-31T00:38:00;17.60;99.90
31809;DHT22;18379;48.208;-1.518;2023-07-31T00:43:00;17.50;99.90
31809;DHT22;18379;48.208;-1.518;2023-07-31T00:48:01;17.50;99.90
31809;DHT22;18379;48.208;-1.518;2023-07-31T00:53:02;17.40;99.90
31809;DHT22;18379;48.208;-1.518;2023-07-31T00:58:03;17.50;99.90
31809;DHT22;18379;48.208;-1.518;2023-07-31T01:03:04;17.40;99.90
31809;DHT22;18379;48.208;-1.518;2023-07-31T01:13:39;17.50;99.90
31809;DHT22;18379;48.208;-1.518;2023-07-31T01:18:39;17.60;99.90
31809;DHT22;18379;48.208;-1.518;2023-07-31T01:34:17;17.60;99.90
31809;DHT22;18379;48.208;-1.518;2023-07-31T01:39:20;17.60;99.90
31809;DHT22;18379;48.208;-1.518;2023-07-31T01:44:21;17.60;99.90
31809;DHT22;18379;48.208;-1.518;2023-07-31T01:49:22;17.60;99.90
31809;DHT22;18379;48.208;-1.518;2023-07-31T01:54:23;17.50;99.90
31809;DHT22;18379;48.208;-1.518;2023-07-31T01:59:23;17.50;99.90
31809;DHT22;18379;48.208;-1.518;2023-07-31T02:04:24;17.50;99.90
31809;DHT22;18379;48.208;-1.518;2023-07-31T02:09:25;17.60;99.90
31809;DHT22;18379;48.208;-1.518;2023-07-31T02:14:25;17.50;99.90
31809;DHT22;18379;48.208;-1.518;2023-07-31T02:19:26;17.50;99.90
31809;DHT22;18379;48.208;-1.518;2023-07-31T02:24:27;17.50;99.90
31809;DHT22;18379;48.208;-1.518;2023-07-31T02:29:28;17.50;99.90
31809;DHT22;18379;48.208;-1.518;2023-07-31T02:34:29;17.30;99.90
31809;DHT22;18379;48.208;-1.518;2023-07-31T02:39:30;17.30;99.90
31809;DHT22;18379;48.208;-1.518;2023-07-31T02:44:30;17.30;99.90
31809;DHT22;18379;48.208;-1.518;2023-07-31T02:49:31;17.40;99.90
31809;DHT22;18379;48.208;-1.518;2023-07-31T02:54:32;17.40;99.90
31809;DHT22;18379;48.208;-1.518;2023-07-31T02:59:33;17.40;99.90
31809;DHT22;18379;48.208;-1.518;2023-07-31T03:04:33;17.40;99.90
31809;DHT22;18379;48.208;-1.518;2023-07-31T03:09:34;17.40;99.90
31809;DHT22;18379;48.208;-1.518;2023-07-31T03:14:35;17.40;99.90
31809;DHT22;18379;48.208;-1.518;2023-07-31T03:19:36;17.40;99.90
31809;DHT22;18379;48.208;-1.518;2023-07-31T03:24:37;17.50;99.90
31809;DHT22;18379;48.208;-1.518;2023-07-31T03:29:37;17.40;99.90
31809;DHT22;18379;48.208;-1.518;2023-07-31T03:34:38;17.40;99.90
31809;DHT22;18379;48.208;-1.518;2023-07-31T03:39:39;17.50;99.90
31809;DHT22;18379;48.208;-1.518;2023-07-31T03:44:40;17.50;99.90
31809;DHT22;18379;48.208;-1.518;2023-07-31T03:49:40;17.40;99.90
31809;DHT22;18379;48.208;-1.518;2023-07-31T03:54:41;17.30;99.90
31809;DHT22;18379;48.208;-1.518;2023-07-31T03:59:44;17.30;99.90
31809;DHT22;18379;48.208;-1.518;2023-07-31T04:04:45;17.20;99.90
31809;DHT22;18379;48.208;-1.518;2023-07-31T04:09:46;17.20;99.90
31809;DHT22;18379;48.208;-1.518;2023-07-31T04:14:47;17.20;99.90
31809;DHT22;18379;48.208;-1.518;2023-07-31T04:19:48;17.20;99.90
31809;DHT22;18379;48.208;-1.518;2023-07-31T04:24:48;17.20;99.90
31809;DHT22;18379;48.208;-1.518;2023-07-31T04:29:49;17.20;99.90
31809;DHT22;18379;48.208;-1.518;2023-07-31T04:34:50;17.30;99.90
31809;DHT22;18379;48.208;-1.518;2023-07-31T04:39:51;17.40;99.90
31809;DHT22;18379;48.208;-1.518;2023-07-31T04:44:51;17.40;99.90
31809;DHT22;18379;48.208;-1.518;2023-07-31T04:49:53;17.40;99.90
31809;DHT22;18379;48.208;-1.518;2023-07-31T04:54:54;17.50;99.90
31809;DHT22;18379;48.208;-1.518;2023-07-31T04:59:55;17.50;99.90
31809;DHT22;18379;48.208;-1.518;2023-07-31T05:04:55;17.60;99.90
31809;DHT22;18379;48.208;-1.518;2023-07-31T05:09:56;17.50;99.90
31809;DHT22;18379;48.208;-1.518;2023-07-31T05:14:57;17.60;99.90
31809;DHT22;18379;48.208;-1.518;2023-07-31T05:19:57;17.70;99.90
31809;DHT22;18379;48.208;-1.518;2023-07-31T05:24:58;17.80;99.90
31809;DHT22;18379;48.208;-1.518;2023-07-31T05:29:59;17.80;99.90
31809;DHT22;18379;48.208;-1.518;2023-07-31T05:35:00;17.70;99.90
31809;DHT22;18379;48.208;-1.518;2023-07-31T05:40:01;17.80;99.90
31809;DHT22;18379;48.208;-1.518;2023-07-31T05:45:01;17.80;99.90
31809;DHT22;18379;48.208;-1.518;2023-07-31T05:50:02;17.80;99.90
31809;DHT22;18379;48.208;-1.518;2023-07-31T05:55:03;17.80;99.90
31809;DHT22;18379;48.208;-1.518;2023-07-31T06:00:05;17.80;99.90
31809;DHT22;18379;48.208;-1.518;2023-07-31T06:05:07;17.80;99.90
31809;DHT22;18379;48.208;-1.518;2023-07-31T06:10:08;17.90;99.90
31809;DHT22;18379;48.208;-1.518;2023-07-31T06:15:10;18.00;99.90
31809;DHT22;18379;48.208;-1.518;2023-07-31T06:20:11;18.00;99.90
31809;DHT22;18379;48.208;-1.518;2023-07-31T06:25:12;18.10;99.90
31809;DHT22;18379;48.208;-1.518;2023-07-31T06:30:13;18.10;99.90
31809;DHT22;18379;48.208;-1.518;2023-07-31T06:35:14;18.20;99.90
31809;DHT22;18379;48.208;-1.518;2023-07-31T06:40:15;18.20;99.90
31809;DHT22;18379;48.208;-1.518;2023-07-31T06:45:15;18.20;99.90
31809;DHT22;18379;48.208;-1.518;2023-07-31T06:50:16;18.20;99.90
31809;DHT22;18379;48.208;-1.518;2023-07-31T06:55:20;18.30;99.90
31809;DHT22;18379;48.208;-1.518;2023-07-31T07:00:22;18.30;99.90
31809;DHT22;18379;48.208;-1.518;2023-07-31T07:05:23;18.30;99.90
31809;DHT22;18379;48.208;-1.518;2023-07-31T07:10:24;18.30;99.90
31809;DHT22;18379;48.208;-1.518;2023-07-31T07:15:25;18.30;99.90
31809;DHT22;18379;48.208;-1.518;2023-07-31T07:20:26;18.40;99.90
31809;DHT22;18379;48.208;-1.518;2023-07-31T07:25:26;18.50;99.90
31809;DHT22;18379;48.208;-1.518;2023-07-31T07:30:28;18.60;99.90
31809;DHT22;18379;48.208;-1.518;2023-07-31T07:35:29;18.50;99.90
31809;DHT22;18379;48.208;-1.518;2023-07-31T07:40:29;18.40;99.90
31809;DHT22;18379;48.208;-1.518;2023-07-31T07:45:30;18.50;99.90
31809;DHT22;18379;48.208;-1.518;2023-07-31T07:50:31;18.60;99.90
31809;DHT22;18379;48.208;-1.518;2023-07-31T07:55:32;18.50;99.90
31809;DHT22;18379;48.208;-1.518;2023-07-31T08:00:33;18.50;99.90
31809;DHT22;18379;48.208;-1.518;2023-07-31T08:05:35;18.60;99.90
31809;DHT22;18379;48.208;-1.518;2023-07-31T08:10:36;18.60;99.90
31809;DHT22;18379;48.208;-1.518;2023-07-31T08:15:37;18.80;99.90
31809;DHT22;18379;48.208;-1.518;2023-07-31T08:20:38;18.70;99.90
31809;DHT22;18379;48.208;-1.518;2023-07-31T08:25:39;18.80;99.90
31809;DHT22;18379;48.208;-1.518;2023-07-31T08:30:40;18.80;99.90
31809;DHT22;18379;48.208;-1.518;2023-07-31T08:35:40;18.80;99.90
31809;DHT22;18379;48.208;-1.518;2023-07-31T08:40:41;18.80;99.90
31809;DHT22;18379;48.208;-1.518;2023-07-31T08:45:42;18.90;99.90
31809;DHT22;18379;48.208;-1.518;2023-07-31T08:50:44;18.90;99.90
31809;DHT22;18379;48.208;-1.518;2023-07-31T08:55:44;18.80;99.90
31809;DHT22;18379;48.208;-1.518;2023-07-31T09:00:46;18.90;99.90
31809;DHT22;18379;48.208;-1.518;2023-07-31T09:05:47;18.90;99.90
31809;DHT22;18379;48.208;-1.518;2023-07-31T09:10:48;18.90;99.90
31809;DHT22;18379;48.208;-1.518;2023-07-31T09:15:52;19.20;99.90
31809;DHT22;18379;48.208;-1.518;2023-07-31T09:21:06;19.40;99.90
31809;DHT22;18379;48.208;-1.518;2023-07-31T09:26:07;19.40;99.90
31809;DHT22;18379;48.208;-1.518;2023-07-31T09:31:08;19.40;99.90
31809;DHT22;18379;48.208;-1.518;2023-07-31T09:36:09;19.50;99.90
31809;DHT22;18379;48.208;-1.518;2023-07-31T09:41:11;19.70;99.90
31809;DHT22;18379;48.208;-1.518;2023-07-31T09:46:14;19.80;99.90
31809;DHT22;18379;48.208;-1.518;2023-07-31T09:51:15;19.80;99.90
31809;DHT22;18379;48.208;-1.518;2023-07-31T09:56:17;20.20;99.90
31809;DHT22;18379;48.208;-1.518;2023-07-31T10:01:19;20.40;99.90
31809;DHT22;18379;48.208;-1.518;2023-07-31T10:06:20;20.30;99.90
31809;DHT22;18379;48.208;-1.518;2023-07-31T10:11:25;20.40;99.90
31809;DHT22;18379;48.208;-1.518;2023-07-31T10:16:28;20.40;99.90
31809;DHT22;18379;48.208;-1.518;2023-07-31T10:21:31;20.60;99.90
31809;DHT22;18379;48.208;-1.518;2023-07-31T10:26:37;20.40;99.90
31809;DHT22;18379;48.208;-1.518;2023-07-31T10:31:39;20.30;99.90
31809;DHT22;18379;48.208;-1.518;2023-07-31T10:36:40;20.20;99.90
31809;DHT22;18379;48.208;-1.518;2023-07-31T10:41:41;20.30;99.90
31809;DHT22;18379;48.208;-1.518;2023-07-31T10:46:42;20.30;99.90
31809;DHT22;18379;48.208;-1.518;2023-07-31T10:51:42;20.30;99.90
31809;DHT22;18379;48.208;-1.518;2023-07-31T10:56:46;20.20;99.90
31809;DHT22;18379;48.208;-1.518;2023-07-31T11:01:52;20.10;99.90
31809;DHT22;18379;48.208;-1.518;2023-07-31T11:07:01;20.20;99.90
31809;DHT22;18379;48.208;-1.518;2023-07-31T11:12:03;20.40;99.90
31809;DHT22;18379;48.208;-1.518;2023-07-31T11:17:08;20.90;99.90
31809;DHT22;18379;48.208;-1.518;2023-07-31T11:22:08;21.60;99.90
31809;DHT22;18379;48.208;-1.518;2023-07-31T11:27:09;21.30;99.90
31809;DHT22;18379;48.208;-1.518;2023-07-31T11:32:16;20.90;99.90
31809;DHT22;18379;48.208;-1.518;2023-07-31T11:37:18;20.80;99.90
31809;DHT22;18379;48.208;-1.518;2023-07-31T11:42:18;21.00;99.90
31809;DHT22;18379;48.208;-1.518;2023-07-31T11:47:19;20.80;99.90
31809;DHT22;18379;48.208;-1.518;2023-07-31T11:52:20;20.70;99.90
31809;DHT22;18379;48.208;-1.518;2023-07-31T11:57:23;20.50;99.90
31809;DHT22;18379;48.208;-1.518;2023-07-31T12:02:24;20.60;99.90
31809;DHT22;18379;48.208;-1.518;2023-07-31T12:07:25;20.80;99.90
31809;DHT22;18379;48.208;-1.518;2023-07-31T12:12:26;21.10;99.90
31809;DHT22;18379;48.208;-1.518;2023-07-31T12:17:27;21.30;99.90
31809;DHT22;18379;48.208;-1.518;2023-07-31T12:22:27;21.40;99.90
31809;DHT22;18379;48.208;-1.518;2023-07-31T12:27:33;21.50;99.90
31809;DHT22;18379;48.208;-1.518;2023-07-31T12:32:35;21.40;99.90
31809;DHT22;18379;48.208;-1.518;2023-07-31T12:37:35;21.30;99.90
31809;DHT22;18379;48.208;-1.518;2023-07-31T12:42:36;21.00;99.90
31809;DHT22;18379;48.208;-1.518;2023-07-31T12:47:37;20.80;99.90
31809;DHT22;18379;48.208;-1.518;2023-07-31T12:52:38;20.80;99.90
31809;DHT22;18379;48.208;-1.518;2023-07-31T12:57:39;20.90;99.90
31809;DHT22;18379;48.208;-1.518;2023-07-31T13:02:41;20.80;99.90
31809;DHT22;18379;48.208;-1.518;2023-07-31T13:07:41;20.70;99.90
31809;DHT22;18379;48.208;-1.518;2023-07-31T13:12:42;20.60;99.90
31809;DHT22;18379;48.208;-1.518;2023-07-31T13:17:43;20.40;99.90
31809;DHT22;18379;48.208;-1.518;2023-07-31T13:22:44;20.20;99.90
31809;DHT22;18379;48.208;-1.518;2023-07-31T13:27:45;20.10;99.90
31809;DHT22;18379;48.208;-1.518;2023-07-31T13:32:46;20.00;99.90
31809;DHT22;18379;48.208;-1.518;2023-07-31T13:37:46;20.10;99.90
31809;DHT22;18379;48.208;-1.518;2023-07-31T13:42:47;20.20;99.90
31809;DHT22;18379;48.208;-1.518;2023-07-31T13:47:50;20.10;99.90
31809;DHT22;18379;48.208;-1.518;2023-07-31T13:52:51;20.00;99.90
31809;DHT22;18379;48.208;-1.518;2023-07-31T13:57:52;20.10;99.90
31809;DHT22;18379;48.208;-1.518;2023-07-31T14:02:53;19.90;99.90
31809;DHT22;18379;48.208;-1.518;2023-07-31T14:07:54;19.80;99.90
31809;DHT22;18379;48.208;-1.518;2023-07-31T14:12:55;19.70;99.90
31809;DHT22;18379;48.208;-1.518;2023-07-31T14:17:56;19.80;99.90
31809;DHT22;18379;48.208;-1.518;2023-07-31T14:22:58;19.70;99.90
31809;DHT22;18379;48.208;-1.518;2023-07-31T14:27:59;19.50;99.90
31809;DHT22;18379;48.208;-1.518;2023-07-31T14:33:00;19.50;99.90
31809;DHT22;18379;48.208;-1.518;2023-07-31T14:38:02;19.40;99.90
31809;DHT22;18379;48.208;-1.518;2023-07-31T14:43:03;19.30;99.90
31809;DHT22;18379;48.208;-1.518;2023-07-31T14:48:04;19.20;99.90
31809;DHT22;18379;48.208;-1.518;2023-07-31T14:53:05;19.20;99.90
31809;DHT22;18379;48.208;-1.518;2023-07-31T14:58:06;19.20;99.90
31809;DHT22;18379;48.208;-1.518;2023-07-31T15:03:07;19.20;99.90
31809;DHT22;18379;48.208;-1.518;2023-07-31T15:08:09;19.20;99.90
31809;DHT22;18379;48.208;-1.518;2023-07-31T15:13:10;19.20;99.90
31809;DHT22;18379;48.208;-1.518;2023-07-31T15:18:11;19.30;99.90
31809;DHT22;18379;48.208;-1.518;2023-07-31T15:23:11;19.40;99.90
31809;DHT22;18379;48.208;-1.518;2023-07-31T15:28:12;19.40;99.90
31809;DHT22;18379;48.208;-1.518;2023-07-31T15:33:14;19.40;99.90
31809;DHT22;18379;48.208;-1.518;2023-07-31T15:38:15;19.40;99.90
31809;DHT22;18379;48.208;-1.518;2023-07-31T15:43:16;19.50;99.90
31809;DHT22;18379;48.208;-1.518;2023-07-31T15:48:18;19.50;99.90
31809;DHT22;18379;48.208;-1.518;2023-07-31T15:53:19;19.50;99.90
31809;DHT22;18379;48.208;-1.518;2023-07-31T15:58:20;19.50;99.90
31809;DHT22;18379;48.208;-1.518;2023-07-31T16:03:21;19.50;99.90
31809;DHT22;18379;48.208;-1.518;2023-07-31T16:08:22;19.50;99.90
31809;DHT22;18379;48.208;-1.518;2023-07-31T16:13:22;19.50;99.90
31809;DHT22;18379;48.208;-1.518;2023-07-31T16:18:23;19.40;99.90
31809;DHT22;18379;48.208;-1.518;2023-07-31T16:23:24;19.40;99.90
31809;DHT22;18379;48.208;-1.518;2023-07-31T16:28:25;19.50;99.90
31809;DHT22;18379;48.208;-1.518;2023-07-31T16:33:25;19.40;99.90
31809;DHT22;18379;48.208;-1.518;2023-07-31T16:38:26;19.40;99.90
31809;DHT22;18379;48.208;-1.518;2023-07-31T16:43:27;19.30;99.90
31809;DHT22;18379;48.208;-1.518;2023-07-31T16:48:29;19.30;99.90
31809;DHT22;18379;48.208;-1.518;2023-07-31T16:53:30;19.30;99.90
31809;DHT22;18379;48.208;-1.518;2023-07-31T16:58:31;19.30;99.90
31809;DHT22;18379;48.208;-1.518;2023-07-31T17:03:31;19.40;99.90
31809;DHT22;18379;48.208;-1.518;2023-07-31T17:08:33;19.40;99.90
31809;DHT22;18379;48.208;-1.518;2023-07-31T17:13:34;19.40;99.90
31809;DHT22;18379;48.208;-1.518;2023-07-31T17:18:35;19.40;99.90
31809;DHT22;18379;48.208;-1.518;2023-07-31T17:23:37;19.30;99.90
31809;DHT22;18379;48.208;-1.518;2023-07-31T17:28:38;19.30;99.90
31809;DHT22;18379;48.208;-1.518;2023-07-31T17:33:40;19.30;99.90
31809;DHT22;18379;48.208;-1.518;2023-07-31T17:38:41;19.30;99.90
31809;DHT22;18379;48.208;-1.518;2023-07-31T17:43:42;19.30;99.90
31809;DHT22;18379;48.208;-1.518;2023-07-31T17:48:42;19.40;99.90
31809;DHT22;18379;48.208;-1.518;2023-07-31T17:53:44;19.30;99.90
31809;DHT22;18379;48.208;-1.518;2023-07-31T17:58:45;19.30;99.90
31809;DHT22;18379;48.208;-1.518;2023-07-31T18:03:45;19.30;99.90
31809;DHT22;18379;48.208;-1.518;2023-07-31T18:08:46;19.20;99.90
31809;DHT22;18379;48.208;-1.518;2023-07-31T18:13:47;19.20;99.90
31809;DHT22;18379;48.208;-1.518;2023-07-31T18:18:48;19.30;99.90
31809;DHT22;18379;48.208;-1.518;2023-07-31T18:23:49;19.30;99.90
31809;DHT22;18379;48.208;-1.518;2023-07-31T18:28:50;19.30;99.90
31809;DHT22;18379;48.208;-1.518;2023-07-31T18:33:50;19.30;99.90
31809;DHT22;18379;48.208;-1.518;2023-07-31T18:38:51;19.20;99.90
31809;DHT22;18379;48.208;-1.518;2023-07-31T18:43:52;19.20;99.90
31809;DHT22;18379;48.208;-1.518;2023-07-31T18:48:53;19.10;99.90
31809;DHT22;18379;48.208;-1.518;2023-07-31T18:53:54;19.00;99.90
31809;DHT22;18379;48.208;-1.518;2023-07-31T18:58:54;19.10;99.90
31809;DHT22;18379;48.208;-1.518;2023-07-31T19:03:55;19.00;99.90
31809;DHT22;18379;48.208;-1.518;2023-07-31T19:08:56;19.00;99.90
31809;DHT22;18379;48.208;-1.518;2023-07-31T19:13:58;19.00;99.90
31809;DHT22;18379;48.208;-1.518;2023-07-31T19:19:00;19.00;99.90
31809;DHT22;18379;48.208;-1.518;2023-07-31T19:24:01;19.00;99.90
31809;DHT22;18379;48.208;-1.518;2023-07-31T19:29:01;19.00;99.90
31809;DHT22;18379;48.208;-1.518;2023-07-31T19:34:02;18.90;99.90
31809;DHT22;18379;48.208;-1.518;2023-07-31T19:39:03;18.80;99.90
31809;DHT22;18379;48.208;-1.518;2023-07-31T19:44:04;18.80;99.90
31809;DHT22;18379;48.208;-1.518;2023-07-31T19:49:04;18.80;99.90
31809;DHT22;18379;48.208;-1.518;2023-07-31T19:54:05;18.80;99.90
31809;DHT22;18379;48.208;-1.518;2023-07-31T19:59:06;18.80;99.90
31809;DHT22;18379;48.208;-1.518;2023-07-31T20:04:07;18.70;99.90
31809;DHT22;18379;48.208;-1.518;2023-07-31T20:09:08;18.70;99.90
31809;DHT22;18379;48.208;-1.518;2023-07-31T20:14:09;18.70;99.90
31809;DHT22;18379;48.208;-1.518;2023-07-31T20:19:11;18.70;99.90
31809;DHT22;18379;48.208;-1.518;2023-07-31T20:24:11;18.70;99.90
31809;DHT22;18379;48.208;-1.518;2023-07-31T20:29:12;18.70;99.90
31809;DHT22;18379;48.208;-1.518;2023-07-31T20:34:13;18.70;99.90
31809;DHT22;18379;48.208;-1.518;2023-07-31T20:39:14;18.80;99.90
31809;DHT22;18379;48.208;-1.518;2023-07-31T20:44:15;18.80;99.90
31809;DHT22;18379;48.208;-1.518;2023-07-31T20:49:16;18.70;99.90
31809;DHT22;18379;48.208;-1.518;2023-07-31T20:54:16;18.80;99.90
31809;DHT22;18379;48.208;-1.518;2023-07-31T20:59:18;18.80;99.90
31809;DHT22;18379;48.208;-1.518;2023-07-31T21:04:19;18.80;99.90
31809;DHT22;18379;48.208;-1.518;2023-07-31T21:09:19;18.80;99.90
31809;DHT22;18379;48.208;-1.518;2023-07-31T21:14:20;18.80;99.90
31809;DHT22;18379;48.208;-1.518;2023-07-31T21:19:21;18.80;99.90
31809;DHT22;18379;48.208;-1.518;2023-07-31T21:24:22;18.80;99.90
31809;DHT22;18379;48.208;-1.518;2023-07-31T21:29:22;18.80;99.90
31809;DHT22;18379;48.208;-1.518;2023-07-31T21:34:23;18.80;99.90
31809;DHT22;18379;48.208;-1.518;2023-07-31T21:39:24;18.80;99.90
31809;DHT22;18379;48.208;-1.518;2023-07-31T21:44:25;18.90;99.90
31809;DHT22;18379;48.208;-1.518;2023-07-31T21:49:26;18.90;99.90
31809;DHT22;18379;48.208;-1.518;2023-07-31T21:54:26;18.90;99.90
31809;DHT22;18379;48.208;-1.518;2023-07-31T21:59:27;18.90;99.90
31809;DHT22;18379;48.208;-1.518;2023-07-31T22:04:28;18.90;99.90
31809;DHT22;18379;48.208;-1.518;2023-07-31T22:09:29;18.90;99.90
31809;DHT22;18379;48.208;-1.518;2023-07-31T22:14:29;18.90;99.90
31809;DHT22;18379;48.208;-1.518;2023-07-31T22:19:30;18.90;99.90
31809;DHT22;18379;48.208;-1.518;2023-07-31T22:24:31;19.00;99.90
31809;DHT22;18379;48.208;-1.518;2023-07-31T22:29:32;18.90;99.90
31809;DHT22;18379;48.208;-1.518;2023-07-31T22:34:33;19.00;99.90
31809;DHT22;18379;48.208;-1.518;2023-07-31T22:39:33;18.90;99.90
31809;DHT22;18379;48.208;-1.518;2023-07-31T22:44:35;19.00;99.90
31809;DHT22;18379;48.208;-1.518;2023-07-31T22:49:36;19.00;99.90
31809;DHT22;18379;48.208;-1.518;2023-07-31T22:54:37;19.00;99.90
31809;DHT22;18379;48.208;-1.518;2023-07-31T22:59:38;19.00;99.90
31809;DHT22;18379;48.208;-1.518;2023-07-31T23:04:38;19.00;99.90
31809;DHT22;18379;48.208;-1.518;2023-07-31T23:09:39;19.00;99.90
31809;DHT22;18379;48.208;-1.518;2023-07-31T23:14:40;18.70;99.90
31809;DHT22;18379;48.208;-1.518;2023-07-31T23:19:41;18.00;99.90
31809;DHT22;18379;48.208;-1.518;2023-07-31T23:24:41;17.80;99.90
31809;DHT22;18379;48.208;-1.518;2023-07-31T23:29:42;17.70;99.90
31809;DHT22;18379;48.208;-1.518;2023-07-31T23:34:43;17.70;99.90
31809;DHT22;18379;48.208;-1.518;2023-07-31T23:39:44;17.50;99.90
31809;DHT22;18379;48.208;-1.518;2023-07-31T23:44:45;17.50;99.90
31809;DHT22;18379;48.208;-1.518;2023-07-31T23:49:50;17.50;99.90
31809;DHT22;18379;48.208;-1.518;2023-07-31T23:54:51;17.50;99.90
31809;DHT22;18379;48.208;-1.518;2023-07-31T23:59:51;17.60;99.90
